• Join FlightAware (Why Join?)
  • Login
  • US Flag 
12:02AM EDT


 

Airport Tracker/Info


-or-


 

Live Flight TrackerFlight Track Log ✈ DAL268 ✈ 11-Oct-2013 ✈ KSFO - KJFK

Flight Track Log - Related Links

Times and Time Zones

All times are in EDT time to prevent confusion due to time zone crossing. See the DAL268 flight status page for this flight to view local times or setup timezone preferences in your user account.

Time Position Orientation Groundspeed Altitude Reporting Facility
EDT Latitude Longitude Course Direction KTS MPH feet Rate Location/Type
02:32PM 37.6130 -122.3760 38° Northeast 120 138  Level FlightAware
02:33PM 37.6307 -122.3650 26° Northeast 167 192 500 1,500 Climbing FlightAware ADS-B
02:33PM 37.6333 -122.3630 31° Northeast 168 193 700 3,000 Climbing FlightAware ADS-B
02:33PM 37.6366 -122.3590 44° Northeast 168 193 1,000 2,280 Climbing FlightAware ADS-B
02:33PM 37.6427 -122.3490 52° Northeast 179 206 1,400 1,740 Climbing FlightAware ADS-B
02:33PM 37.6514 -122.3370 48° Northeast 198 228 1,800 1,320 Climbing FlightAware ADS-B
02:34PM 37.6617 -122.3220 49° Northeast 221 254 2,100 1,680 Climbing FlightAware ADS-B
02:34PM 37.6730 -122.3070 46° Northeast 234 269 2,700 2,040 Climbing FlightAware ADS-B
02:34PM 37.6853 -122.2900 48° Northeast 251 289 3,200 2,040 Climbing FlightAware ADS-B
02:34PM 37.6963 -122.2740 49° Northeast 265 305 3,700 3,000 Climbing FlightAware ADS-B
02:35PM 37.7135 -122.2510 47° Northeast 263 303 4,900 3,120 Climbing FlightAware ADS-B
02:35PM 37.7279 -122.2310 48° Northeast 265 305 5,700 2,820 Climbing FlightAware ADS-B
02:35PM 37.7425 -122.2110 47° Northeast 276 318 6,500 3,000 Climbing FlightAware ADS-B
02:35PM 37.7569 -122.1920 46° Northeast 278 320 7,400 3,000 Climbing FlightAware ADS-B
02:36PM 37.7704 -122.1720 50° Northeast 283 326 8,100 2,700 Climbing FlightAware ADS-B
02:36PM 37.7739 -122.1670 48° Northeast 285 328 8,300 3,000 Climbing FlightAware ADS-B
02:36PM 37.7784 -122.1590 55° Northeast 287 330 8,600 2,460 Climbing FlightAware ADS-B
02:36PM 37.7823 -122.1500 61° Northeast 291 335 8,800 2,280 Climbing FlightAware ADS-B
02:36PM 37.7862 -122.1390 66° East 295 339 9,100 3,000 Climbing FlightAware ADS-B
02:36PM 37.7906 -122.1240 70° East 293 337 9,600 2,400 Climbing FlightAware ADS-B
02:37PM 37.8059 -122.0710 70° East 312 359 10,800 1,620 Climbing FlightAware ADS-B
02:37PM 37.8213 -122.0160 70° East 347 399 11,300 1,080 Climbing FlightAware ADS-B
02:38PM 37.8371 -121.9540 72° East 376 433 11,900 1,620 Climbing FlightAware ADS-B
02:38PM 37.8541 -121.8870 72° East 390 449 13,000 2,220 Climbing FlightAware ADS-B
02:39PM 37.8711 -121.8190 72° East 399 459 14,200 2,340 Climbing FlightAware ADS-B
02:39PM 37.8880 -121.7520 72° East 405 466 15,400 2,160 Climbing FlightAware ADS-B
02:40PM 37.9054 -121.6820 72° East 412 474 16,400 1,980 Climbing FlightAware ADS-B
02:40PM 37.9240 -121.6090 72° East 419 482 17,500 1,980 Climbing FlightAware ADS-B
02:41PM 37.9475 -121.5150 72° East 425 489 18,800 1,740 Climbing FlightAware ADS-B
02:42PM 37.9650 -121.4440 73° East 428 493 19,600 1,680 Climbing FlightAware
02:42PM 37.9900 -121.3470 72° East 437 503 20,800 1,620 Climbing FlightAware
02:43PM 38.0080 -121.2720 73° East 448 516 21,500 1,380 Climbing FlightAware
02:43PM 38.0320 -121.1760 72° East 457 526 22,400 1,440 Climbing FlightAware
02:44PM 38.0520 -121.0950 73° East 465 535 23,200 1,380 Climbing FlightAware
02:45PM 38.0760 -120.9990 72° East 473 544 24,000 1,260 Climbing FlightAware
02:45PM 38.0990 -120.9040 73° East 480 552 24,800 1,380 Climbing FlightAware
02:46PM 38.1240 -120.8010 73° East 489 563 25,700 1,260 Climbing FlightAware
02:46PM 38.1450 -120.7120 73° East 495 570 26,300 1,200 Climbing FlightAware
02:47PM 38.1660 -120.6230 73° East 499 574 27,000 1,200 Climbing FlightAware
02:47PM 38.1900 -120.5230 73° East 503 579 27,700 1,200 Climbing FlightAware
02:48PM 38.2160 -120.4120 73° East 506 582 28,500 1,260 Climbing FlightAware
02:49PM 38.2390 -120.3180 73° East 505 581 29,300 1,500 Climbing FlightAware
02:49PM 38.2600 -120.2260 74° East 501 577 30,200 1,560 Climbing FlightAware
02:50PM 38.2799 -120.1428 73° East 495 570 31,000 660 Climbing FlightAware ADS-B (KAHC)
02:50PM 38.3050 -120.0370 73° East 486 559 31,000  Level FlightAware
02:51PM 38.3300 -119.9270 74° East 486 559 31,000  Level FlightAware
02:52PM 38.3530 -119.8280 73° East 490 564 31,000  Level FlightAware
02:52PM 38.3777 -119.7215 74° East 493 567 31,000  Level FlightAware ADS-B (KAHC)
02:53PM 38.3984 -119.6309 74° East 495 570 31,000  Level FlightAware ADS-B (KAHC)
02:53PM 38.4200 -119.5370 74° East 496 571 31,000  Level FlightAware
02:53PM 38.4260 -119.5101 74° East 498 573 31,000  Level FlightAware ADS-B (KAHC)
02:54PM 38.4650 -119.3370 74° East 498 573 31,000  Level FlightAware
02:55PM 38.4709 -119.3125 73° East 499 574 31,000  Level FlightAware ADS-B (KAHC)
02:55PM 38.4877 -119.2379 74° East 498 573 31,000  Level FlightAware ADS-B (KAHC)
02:56PM 38.5060 -119.1351 77° East 500 575 31,000  Level FlightAware ADS-B (KAHC)
02:56PM 38.5170 -119.0400 82° East 499 574 31,000  Level FlightAware
02:56PM 38.5204 -119.0052 83° East 499 574 31,000  Level FlightAware ADS-B (KAHC)
02:57PM 38.5380 -118.8340 82° East 498 573 31,000  Level FlightAware
02:58PM 38.5490 -118.7120 83° East 496 571 31,000  Level FlightAware
02:59PM 38.5580 -118.6150 83° East 496 571 31,000  Level FlightAware
02:59PM 38.5690 -118.5060 83° East 495 570 31,000  Level FlightAware
03:00PM 38.5790 -118.4050 83° East 495 570 31,000  Level FlightAware
03:00PM 38.5880 -118.3120 83° East 495 570 31,000  Level FlightAware
03:01PM 38.5970 -118.2090 84° East 495 570 31,000  Level FlightAware
03:02PM 38.6080 -118.1000 83° East 495 570 31,000  Level FlightAware
03:02PM 38.6160 -118.0140 83° East 495 570 31,000  Level FlightAware
03:03PM 38.6250 -117.9220 83° East 495 570 31,000  Level FlightAware
03:03PM 38.6330 -117.8330 83° East 495 570 31,000  Level FlightAware
03:04PM 38.6410 -117.7490 83° East 495 570 31,000  Level FlightAware
03:05PM 38.6490 -117.6650 83° East 495 570 31,000  Level FlightAware
03:05PM 38.6580 -117.5710 83° East 495 570 31,000  Level FlightAware
03:06PM 38.6670 -117.4840 82° East 495 570 31,000  Level FlightAware
03:06PM 38.6750 -117.3930 84° East 495 570 31,000  Level FlightAware
03:07PM 38.6830 -117.3090 83° East 495 570 31,000  Level FlightAware
03:08PM 38.6920 -117.2190 83° East 495 570 31,000  Level FlightAware
03:08PM 38.7010 -117.1300 83° East 495 570 31,000  Level FlightAware
03:09PM 38.7090 -117.0410 83° East 495 570 31,000  Level FlightAware
03:09PM 38.7180 -116.9520 83° East 495 570 31,000  Level FlightAware
03:10PM 38.7270 -116.8580 83° East 495 570 31,000  Level FlightAware
03:11PM 38.7400 -116.7140 83° East 495 570 31,000  Level FlightAware
03:12PM 38.8186 -116.3503 83° East 495 570 31,000  Level Oakland Center
03:13PM 38.8425 -116.1778 80° East 492 566 31,000  Level Oakland Center
03:14PM 38.8722 -115.9697 80° East 493 567 31,000  Level Salt Lake Center
03:15PM 38.8953 -115.7969 80° East 492 566 31,000  Level Salt Lake Center
03:16PM 38.9208 -115.6236 79° East 494 568 31,000  Level Salt Lake Center
03:17PM 38.9436 -115.4497 80° East 493 567 31,000  Level Salt Lake Center
03:18PM 38.9711 -115.2475 80° East 499 574 31,000  Level Salt Lake Center
03:19PM 38.9939 -115.0728 80° East 498 573 31,000  Level Salt Lake Center
03:20PM 39.0181 -114.8972 80° East 499 574 31,000  Level Salt Lake Center
03:21PM 39.0403 -114.7217 81° East 498 573 31,000 480 Level Salt Lake Center
03:26PM 39.1564 -113.7827 81° East 483 556 34,400 660 Climbing FlightAware ADS-B
03:27PM 39.1730 -113.6420 81° East 481 554 35,400 1,140 Climbing FlightAware
03:28PM 39.1776 -113.6052 81° East 479 551 35,600 1,320 Climbing FlightAware ADS-B
03:28PM 39.1878 -113.5187 81° East 474 545 36,400 1,200 Climbing FlightAware ADS-B
03:29PM 39.1980 -113.4280 82° East 473 544 36,900 780 Climbing FlightAware
03:29PM 39.2014 -113.4020 80° East 473 544 37,000 120 Climbing FlightAware ADS-B
03:29PM 39.2119 -113.3116 81° East 471 542 37,000  Level FlightAware ADS-B
03:30PM 39.2216 -113.2272 82° East 470 541 37,000  Level FlightAware ADS-B
03:31PM 39.2379 -113.0844 82° East 472 543 37,000  Level FlightAware ADS-B
03:31PM 39.2430 -113.0400 82° East 472 543 37,000  Level FlightAware ADS-B
03:31PM 39.2473 -113.0020 82° East 472 543 37,000  Level FlightAware ADS-B
03:31PM 39.2525 -112.9560 82° East 472 543 37,000  Level FlightAware ADS-B
03:32PM 39.2581 -112.9061 82° East 472 543 37,000  Level FlightAware ADS-B
03:32PM 39.2619 -112.8710 82° East 473 544 37,000  Level FlightAware ADS-B
03:32PM 39.2715 -112.7859 82° East 474 545 37,000  Level FlightAware ADS-B
03:32PM 39.2722 -112.7790 82° East 474 545 37,000  Level FlightAware ADS-B
03:33PM 39.2803 -112.7058 82° East 474 545 37,000  Level FlightAware ADS-B
03:33PM 39.2843 -112.6700 82° East 474 545 37,000  Level FlightAware ADS-B
03:34PM 39.2936 -112.5850 82° East 476 548 37,000  Level FlightAware ADS-B
03:34PM 39.2973 -112.5520 82° East 476 548 37,000  Level FlightAware ADS-B
03:34PM 39.3074 -112.4820 79° East 473 544 37,000  Level FlightAware ADS-B
03:35PM 39.3229 -112.3950 77° East 472 543 37,000  Level FlightAware ADS-B
03:35PM 39.3257 -112.3790 77° East 472 543 37,000  Level FlightAware ADS-B
03:35PM 39.3438 -112.2830 76° East 473 544 37,000  Level FlightAware ADS-B
03:36PM 39.3466 -112.2678 76° East 474 545 37,000  Level FlightAware ADS-B
03:36PM 39.3641 -112.1750 76° East 474 545 37,000  Level FlightAware ADS-B
03:36PM 39.3708 -112.1385 77° East 475 547 37,000  Level FlightAware ADS-B
03:37PM 39.3815 -112.0810 76° East 475 547 37,000  Level FlightAware ADS-B
03:37PM 39.3929 -112.0193 77° East 476 548 37,000  Level FlightAware ADS-B
03:37PM 39.3969 -111.9970 77° East 476 548 37,000  Level FlightAware ADS-B
03:38PM 39.4153 -111.8970 77° East 477 549 37,000  Level FlightAware ADS-B
03:38PM 39.4259 -111.8389 77° East 478 550 37,000  Level FlightAware ADS-B
03:38PM 39.4324 -111.8040 76° East 478 550 37,000  Level FlightAware ADS-B
03:39PM 39.4470 -111.7250 77° East 477 549 37,000  Level FlightAware
03:39PM 39.4520 -111.6950 78° East 478 550 37,000  Level FlightAware ADS-B
03:40PM 39.4704 -111.5930 77° East 478 550 37,000  Level FlightAware ADS-B
03:40PM 39.4715 -111.5876 76° East 478 550 37,000  Level FlightAware ADS-B
03:40PM 39.4855 -111.5090 77° East 478 550 37,000  Level FlightAware ADS-B
03:40PM 39.4853 -111.5106 260° West 478 550 37,000  Level FlightAware ADS-B (KMTJ)
03:41PM 39.5006 -111.4250 77° East 478 550 37,000  Level FlightAware ADS-B
03:41PM 39.5037 -111.4077 77° East 478 550 37,000  Level FlightAware ADS-B (KMTJ)
03:41PM 39.5164 -111.3360 77° East 478 550 37,000  Level FlightAware ADS-B
03:41PM 39.5185 -111.3245 77° East 478 550 37,000  Level FlightAware ADS-B (KMTJ)
03:42PM 39.5317 -111.2500 77° East 477 549 37,000  Level FlightAware ADS-B
03:42PM 39.5334 -111.2404 77° East 477 549 37,000  Level FlightAware ADS-B (KMTJ)
03:42PM 39.5466 -111.1660 77° East 477 549 37,000  Level FlightAware ADS-B
03:42PM 39.5481 -111.1567 78° East 477 549 37,000  Level FlightAware ADS-B (KMTJ)
03:43PM 39.5650 -111.0609 77° East 477 549 37,000  Level FlightAware ADS-B (KMTJ)
03:43PM 39.5816 -110.9659 77° East 478 550 37,000  Level FlightAware ADS-B
03:43PM 39.5836 -110.9540 77° East 477 549 37,000  Level FlightAware ADS-B
03:44PM 39.5985 -110.8680 77° East 479 551 37,000  Level FlightAware ADS-B (KMTJ)
03:45PM 39.6156 -110.7691 77° East 480 552 37,000  Level FlightAware ADS-B
03:45PM 39.6308 -110.6807 77° East 479 551 37,000  Level FlightAware ADS-B (KMTJ)
03:46PM 39.6457 -110.5936 77° East 479 551 37,000  Level FlightAware ADS-B (KMTJ)
03:46PM 39.6599 -110.5101 78° East 480 552 37,000  Level FlightAware ADS-B (KMTJ)
03:47PM 39.6753 -110.4191 78° East 481 554 37,000  Level FlightAware ADS-B (KMTJ)
03:47PM 39.6940 -110.3082 78° East 482 555 37,000  Level FlightAware ADS-B (KMTJ)
03:48PM 39.7095 -110.2153 78° East 481 554 37,000  Level FlightAware ADS-B (KMTJ)
03:48PM 39.7237 -110.1300 78° East 481 554 37,000  Level FlightAware ADS-B (KMTJ)
03:49PM 39.7379 -110.0447 78° East 481 554 37,000  Level FlightAware ADS-B (KMTJ)
03:49PM 39.7562 -109.9337 78° East 480 552 37,000  Level FlightAware ADS-B (KMTJ)
03:50PM 39.7758 -109.8139 78° East 476 548 37,000  Level FlightAware ADS-B (KMTJ)
03:51PM 39.7899 -109.7274 78° East 475 547 37,000  Level FlightAware ADS-B (KMTJ)
03:51PM 39.8046 -109.6366 78° East 475 547 37,000  Level FlightAware ADS-B (KMTJ)
03:52PM 39.8226 -109.5247 78° East 474 545 37,000  Level FlightAware ADS-B (KMTJ)
03:52PM 39.8358 -109.4421 78° East 473 544 37,000  Level FlightAware ADS-B (KMTJ)
03:53PM 39.8509 -109.3474 78° East 474 545 37,000  Level FlightAware ADS-B (KMTJ)
03:54PM 39.8652 -109.2578 78° East 474 545 37,000  Level FlightAware ADS-B (KMTJ)
03:54PM 39.8832 -109.1431 78° East 476 548 37,000  Level FlightAware ADS-B (KMTJ)
03:55PM 39.8981 -109.0482 78° East 477 549 37,000  Level FlightAware ADS-B (KMTJ)
03:55PM 39.9111 -108.9639 79° East 477 549 37,000  Level FlightAware ADS-B (KMTJ)
03:56PM 39.9254 -108.8718 79° East 477 549 37,000  Level FlightAware ADS-B (KMTJ)
03:56PM 39.9384 -108.7872 79° East 478 550 37,000  Level FlightAware ADS-B (KMTJ)
03:57PM 39.9530 -108.6917 79° East 479 551 37,000  Level FlightAware ADS-B (KMTJ)
03:57PM 39.9660 -108.6060 79° East 479 551 37,000  Level FlightAware
03:58PM 39.9705 -108.5767 79° East 480 552 37,000  Level FlightAware ADS-B (KMTJ)
03:58PM 39.9868 -108.4689 79° East 480 552 37,000  Level FlightAware ADS-B (KMTJ)
03:59PM 40.0006 -108.3773 79° East 480 552 37,000  Level FlightAware ADS-B (KMTJ)
03:59PM 40.0134 -108.2916 79° East 481 554 37,000  Level FlightAware ADS-B (KMTJ)
04:00PM 40.0259 -108.2076 79° East 481 554 37,000  Level FlightAware ADS-B (KMTJ)
04:00PM 40.0386 -108.1223 79° East 482 555 37,000  Level FlightAware ADS-B (KMTJ)
04:01PM 40.0508 -108.0392 79° East 484 557 37,000  Level FlightAware ADS-B (KMTJ)
04:01PM 40.0638 -107.9501 79° East 485 558 37,000  Level FlightAware ADS-B (KMTJ)
04:02PM 40.0764 -107.8676 79° East 484 557 37,000  Level FlightAware ADS-B (KMTJ)
04:02PM 40.0937 -107.7677 77° East 485 558 37,000  Level FlightAware ADS-B (KMTJ)
04:03PM 40.1081 -107.6847 77° East 487 560 37,000  Level FlightAware ADS-B (KMTJ)
04:03PM 40.1234 -107.5947 77° East 487 560 37,000  Level FlightAware ADS-B (KMTJ)
04:04PM 40.1381 -107.5059 78° East 489 563 37,000  Level FlightAware ADS-B (KMTJ)
04:04PM 40.1522 -107.4208 78° East 490 564 37,000  Level FlightAware ADS-B (KMTJ)
04:05PM 40.1655 -107.3398 78° East 492 566 37,000  Level FlightAware ADS-B (KMTJ)
04:05PM 40.1798 -107.2519 78° East 493 567 37,000  Level FlightAware ADS-B (KMTJ)
04:06PM 40.2030 -107.1110 78° East 494 568 37,000  Level FlightAware
04:07PM 40.2190 -107.0120 78° East 495 570 37,000  Level FlightAware
04:07PM 40.2350 -106.9090 78° East 495 570 37,000  Level FlightAware
04:08PM 40.2510 -106.8090 78° East 495 570 37,000  Level FlightAware
04:08PM 40.2686 -106.7002 78° East 496 571 37,000  Level FlightAware ADS-B (KEIK)
04:09PM 40.2839 -106.6039 78° East 496 571 37,000  Level FlightAware ADS-B (KEIK)
04:10PM 40.3036 -106.4786 78° East 496 571 37,000  Level FlightAware ADS-B (KEIK)
04:10PM 40.3250 -106.3410 78° East 495 570 37,000  Level FlightAware
04:11PM 40.3407 -106.2401 78° East 495 570 37,000  Level FlightAware ADS-B (KEIK)
04:12PM 40.3551 -106.1462 79° East 495 570 37,000  Level FlightAware ADS-B (KEIK)
04:12PM 40.3689 -106.0558 79° East 495 570 37,000  Level FlightAware ADS-B (KEIK)
04:13PM 40.3820 -105.9700 79° East 495 570 37,000  Level FlightAware
04:13PM 40.3870 -105.9364 79° East 495 570 37,000  Level FlightAware ADS-B (KEIK)
04:13PM 40.4017 -105.8392 79° East 494 568 37,000  Level FlightAware ADS-B (KEIK)
04:14PM 40.4134 -105.7611 79° East 496 571 37,000  Level FlightAware ADS-B (KEIK)
04:14PM 40.4288 -105.6581 79° East 497 572 37,000  Level FlightAware ADS-B (KEIK)
04:15PM 40.4423 -105.5673 79° East 496 571 37,000  Level FlightAware ADS-B (KEIK)
04:16PM 40.4600 -105.4473 79° East 498 573 37,000  Level FlightAware ADS-B (KEIK)
04:16PM 40.4728 -105.3594 79° East 498 573 37,000  Level FlightAware ADS-B (KEIK)
04:17PM 40.4860 -105.2692 79° East 498 573 37,000  Level FlightAware ADS-B (KEIK)
04:17PM 40.5040 -105.1460 79° East 497 572 37,000  Level FlightAware
04:18PM 40.5200 -105.0330 79° East 496 571 37,000  Level FlightAware
04:18PM 40.5270 -104.9839 79° East 496 571 37,000  Level FlightAware ADS-B (KEIK)
04:19PM 40.5423 -104.8764 79° East 496 571 37,000  Level FlightAware ADS-B (KEIK)
04:19PM 40.5569 -104.7727 79° East 495 570 37,000  Level FlightAware ADS-B (KEIK)
04:20PM 40.5709 -104.6732 80° East 494 568 37,000  Level FlightAware ADS-B (KEIK)
04:20PM 40.5834 -104.5837 80° East 493 567 37,000  Level FlightAware ADS-B (KEIK)
04:21PM 40.5964 -104.4892 80° East 491 565 37,000  Level FlightAware ADS-B (KEIK)
04:21PM 40.6092 -104.3965 80° East 491 565 37,000  Level FlightAware ADS-B (KEIK)
04:23PM 40.6340 -104.2110 80° East 488 562 37,000  Level FlightAware
04:23PM 40.6470 -104.1210 79° East 490 564 37,000  Level FlightAware
04:24PM 40.6620 -104.0100 80° East 493 567 37,000  Level FlightAware
04:24PM 40.6770 -103.8910 81° East 496 571 37,000  Level FlightAware
04:25PM 40.6920 -103.7790 80° East 498 573 37,000  Level FlightAware
04:26PM 40.7060 -103.6730 80° East 500 575 37,000  Level FlightAware
04:26PM 40.7190 -103.5710 80° East 501 577 37,000  Level FlightAware
04:27PM 40.7330 -103.4630 80° East 501 577 37,000  Level FlightAware
04:27PM 40.7460 -103.3640 80° East 501 577 37,000  Level FlightAware
04:28PM 40.7580 -103.2690 81° East 502 578 37,000  Level FlightAware
04:28PM 40.7730 -103.1510 80° East 502 578 37,000  Level FlightAware
04:29PM 40.7870 -103.0400 81° East 502 578 37,000  Level FlightAware
04:30PM 40.7990 -102.9440 81° East 503 579 37,000  Level FlightAware
04:30PM 40.8120 -102.8330 81° East 505 581 37,000  Level FlightAware
04:31PM 40.8260 -102.7190 81° East 506 582 37,000  Level FlightAware
04:32PM 40.8410 -102.5990 81° East 507 583 37,000  Level FlightAware
04:32PM 40.8540 -102.4860 81° East 509 586 37,000  Level FlightAware
04:33PM 40.8660 -102.3910 80° East 510 587 37,000  Level FlightAware
04:33PM 40.8790 -102.2750 82° East 511 588 37,000  Level FlightAware
04:34PM 40.8970 -102.1220 81° East 512 589 37,000  Level FlightAware
04:35PM 40.9090 -102.0250 81° East 512 589 37,000  Level FlightAware
04:35PM 40.9200 -101.9360 81° East 512 589 37,000  Level FlightAware
04:36PM 40.9310 -101.8380 82° East 512 589 37,000  Level FlightAware
04:37PM 40.9490 -101.6710 82° East 518 596 37,000  Level FlightAware
04:37PM 40.9610 -101.5730 81° East 518 596 37,000  Level FlightAware
04:38PM 40.9720 -101.4770 81° East 518 596 37,000  Level FlightAware
04:38PM 40.9830 -101.3860 81° East 518 596 37,000  Level FlightAware
04:39PM 40.9940 -101.2900 81° East 518 596 37,000  Level FlightAware
04:39PM 41.0060 -101.1940 81° East 518 596 37,000  Level FlightAware
04:40PM 41.0180 -101.0900 81° East 518 596 37,000  Level FlightAware
04:41PM 41.0290 -101.0000 81° East 518 596 37,000  Level FlightAware
04:41PM 41.0410 -100.8980 81° East 518 596 37,000  Level FlightAware
04:42PM 41.0530 -100.8000 81° East 518 596 37,000  Level FlightAware
04:43PM 41.0650 -100.7010 81° East 518 596 37,000  Level FlightAware
04:43PM 41.0760 -100.6020 82° East 518 596 37,000  Level FlightAware
04:44PM 41.0880 -100.5060 81° East 518 596 37,000  Level FlightAware
04:44PM 41.0990 -100.4150 81° East 518 596 37,000  Level FlightAware
04:45PM 41.1100 -100.3240 81° East 518 596 37,000  Level FlightAware
04:46PM 41.1210 -100.2280 81° East 518 596 37,000  Level FlightAware
04:46PM 41.1330 -100.1290 81° East 518 596 37,000  Level FlightAware
04:49PM 41.2573 -99.2659 79° East 531 611 37,000  Level FlightAware ADS-B
04:50PM 41.2617 -99.2329 80° East 531 611 37,000  Level FlightAware ADS-B
04:52PM 41.3275 -98.7321 80° East 535 616 37,000  Level FlightAware ADS-B
04:52PM 41.3420 -98.6240 80° East 535 616 37,000  Level FlightAware
04:53PM 41.3600 -98.4840 80° East 536 617 37,000  Level FlightAware
04:54PM 41.3870 -98.3130 78° East 542 624 37,000  Level FlightAware
04:54PM 41.4158 -98.2310 65° Northeast 550 633 37,000  Level FlightAware ADS-B
04:55PM 41.4194 -98.2198 67° East 550 633 37,000  Level FlightAware ADS-B
04:56PM 41.5020 -97.9660 66° East 552 635 37,000  Level FlightAware
04:56PM 41.5330 -97.8700 67° East 552 635 37,000  Level FlightAware
04:57PM 41.5710 -97.7530 67° East 552 635 37,000  Level FlightAware
04:58PM 41.6030 -97.6540 67° East 553 636 37,000  Level FlightAware
04:58PM 41.6330 -97.5570 67° East 552 635 37,000  Level FlightAware
04:59PM 41.6720 -97.4350 67° East 551 634 37,000  Level FlightAware
04:59PM 41.7020 -97.3390 67° East 551 634 37,000  Level FlightAware
05:00PM 41.7340 -97.2370 67° East 551 634 37,000  Level FlightAware
05:00PM 41.7710 -97.1210 67° East 551 634 37,000  Level FlightAware
05:01PM 41.8060 -97.0100 67° East 550 633 37,000  Level FlightAware
05:02PM 41.8430 -96.8920 67° East 550 633 37,000  Level FlightAware
05:02PM 41.8760 -96.7860 67° East 549 632 37,000  Level FlightAware
05:03PM 41.9120 -96.6670 68° East 548 631 37,000  Level FlightAware
05:03PM 41.9430 -96.5660 68° East 547 629 37,000  Level FlightAware
05:04PM 41.9770 -96.4570 67° East 547 629 37,000  Level FlightAware
05:05PM 42.0120 -96.3430 68° East 546 628 37,000  Level FlightAware
05:05PM 42.0430 -96.2400 68° East 546 628 37,000  Level FlightAware
05:06PM 42.0780 -96.1240 68° East 545 627 37,000  Level FlightAware
05:06PM 42.1130 -96.0090 68° East 545 627 37,000  Level FlightAware
05:06PM 42.1220 -95.9777 69° East 546 628 37,000  Level FlightAware ADS-B
05:07PM 42.1760 -95.7980 68° East 544 626 37,000  Level FlightAware
05:08PM 42.2060 -95.6980 68° East 543 625 37,000  Level FlightAware
05:09PM 42.2420 -95.5750 68° East 542 624 37,000  Level FlightAware
05:09PM 42.2750 -95.4650 68° East 540 621 37,000  Level FlightAware
05:10PM 42.3060 -95.3580 69° East 539 620 37,000  Level FlightAware
05:10PM 42.3382 -95.2477 68° East 541 623 37,000  Level FlightAware ADS-B
05:11PM 42.3720 -95.1320 68° East 540 621 37,000  Level FlightAware
05:11PM 42.3987 -95.0394 69° East 539 620 37,000  Level FlightAware ADS-B
05:12PM 42.4340 -94.9160 69° East 537 618 37,000  Level FlightAware
05:13PM 42.4640 -94.8140 68° East 537 618 37,000  Level FlightAware
05:13PM 42.4960 -94.7020 69° East 537 618 37,000  Level FlightAware
05:14PM 42.5294 -94.5837 69° East 537 618 37,000  Level FlightAware ADS-B
05:14PM 42.5570 -94.4880 69° East 536 617 37,000  Level FlightAware
05:15PM 42.5900 -94.3680 69° East 533 613 37,000  Level FlightAware
05:15PM 42.6017 -94.3135 74° East 525 604 37,000  Level FlightAware ADS-B
05:16PM 42.6130 -94.1440 85° East 509 586 37,000  Level FlightAware
05:17PM 42.6131 -94.1017 90° East 508 585 37,000  Level FlightAware ADS-B
05:17PM 42.6140 -93.9230 90° East 507 583 37,000  Level FlightAware
05:18PM 42.6150 -93.8160 89° East 505 581 37,000  Level FlightAware
05:18PM 42.6150 -93.7200 90° East 504 580 37,000  Level FlightAware
05:19PM 42.6160 -93.5960 89° East 504 580 37,000  Level FlightAware
05:20PM 42.6160 -93.4870 90° East 501 577 37,000  Level FlightAware
05:20PM 42.6160 -93.3700 90° East 499 574 37,000  Level FlightAware
05:21PM 42.6170 -93.2720 89° East 497 572 37,000  Level FlightAware
05:21PM 42.6167 -93.2315 91° East 497 572 37,000  Level FlightAware ADS-B
05:22PM 42.6170 -93.0220 90° East 496 571 37,000  Level FlightAware
05:23PM 42.6160 -92.9200 91° East 494 568 37,000  Level FlightAware
05:23PM 42.6160 -92.8060 90° East 495 570 37,000  Level FlightAware
05:24PM 42.6160 -92.7010 90° East 495 570 37,000  Level FlightAware
05:24PM 42.6155 -92.6418 91° East 496 571 37,000  Level FlightAware ADS-B
05:25PM 42.6149 -92.5269 90° East 497 572 37,000  Level FlightAware ADS-B
05:25PM 42.6143 -92.4252 90° East 497 572 37,000  Level FlightAware ADS-B
05:26PM 42.6130 -92.2620 91° East 498 573 37,000  Level FlightAware
05:26PM 42.6129 -92.2394 90° East 498 573 37,000  Level FlightAware ADS-B
05:27PM 42.6116 -92.0848 91° East 498 573 37,000  Level FlightAware ADS-B
05:28PM 42.6099 -91.9188 91° East 497 572 37,000  Level FlightAware ADS-B
05:29PM 42.6090 -91.8330 91° East 496 571 37,000  Level FlightAware
05:29PM 42.6085 -91.7999 91° East 495 570 37,000  Level FlightAware ADS-B
05:30PM 42.6067 -91.6506 91° East 495 570 37,000  Level FlightAware ADS-B
05:30PM 42.6047 -91.5108 91° East 494 568 37,000  Level FlightAware ADS-B
05:31PM 42.6034 -91.4202 91° East 494 568 37,000  Level FlightAware ADS-B
05:31PM 42.6014 -91.2963 91° East 494 568 37,000  Level FlightAware ADS-B
05:32PM 42.5999 -91.2045 91° East 494 568 37,000  Level FlightAware ADS-B
05:33PM 42.5972 -91.0527 91° East 493 567 37,000  Level FlightAware ADS-B
05:33PM 42.5950 -90.9570 92° East 492 566 37,000  Level FlightAware
05:34PM 42.5930 -90.8620 92° East 491 565 37,000  Level FlightAware
05:34PM 42.5929 -90.8326 90° East 491 565 37,000  Level FlightAware ADS-B
05:35PM 42.5890 -90.6440 92° East 490 564 37,000  Level FlightAware
05:36PM 42.5860 -90.5150 92° East 488 562 37,000  Level FlightAware
05:36PM 42.5830 -90.4060 92° East 487 560 37,000  Level FlightAware
05:37PM 42.5810 -90.3020 91° East 486 559 37,000  Level FlightAware
05:37PM 42.5780 -90.1950 92° East 486 559 37,000  Level FlightAware
05:38PM 42.5750 -90.0840 92° East 486 559 37,000  Level FlightAware
05:39PM 42.5720 -89.9780 92° East 486 559 37,000  Level FlightAware
05:39PM 42.5690 -89.8790 92° East 486 559 37,000  Level FlightAware
05:40PM 42.5660 -89.7650 92° East 485 558 37,000  Level FlightAware
05:40PM 42.5630 -89.6530 92° East 485 558 37,000  Level FlightAware
05:41PM 42.5600 -89.5590 92° East 485 558 37,000  Level FlightAware
05:42PM 42.5560 -89.4500 93° East 485 558 37,000  Level FlightAware
05:42PM 42.5530 -89.3420 92° East 485 558 37,000  Level FlightAware
05:43PM 42.5490 -89.2410 93° East 486 559 37,000  Level FlightAware
05:43PM 42.5460 -89.1350 92° East 486 559 37,000  Level FlightAware
05:44PM 42.5410 -89.0160 93° East 486 559 37,000  Level FlightAware
05:44PM 42.5380 -88.9180 92° East 486 559 37,000  Level FlightAware
05:45PM 42.5340 -88.8120 93° East 487 560 37,000  Level FlightAware
05:46PM 42.5300 -88.7080 93° East 487 560 37,000  Level FlightAware
05:46PM 42.5250 -88.5950 93° East 487 560 37,000  Level FlightAware
05:47PM 42.5210 -88.4890 93° East 487 560 37,000  Level FlightAware
05:47PM 42.5170 -88.3850 93° East 486 559 37,000  Level FlightAware
05:48PM 42.5120 -88.2800 94° East 486 559 37,000  Level FlightAware
05:49PM 42.5080 -88.1790 93° East 486 559 37,000  Level FlightAware
05:49PM 42.5030 -88.0760 94° East 485 558 37,000  Level FlightAware
05:50PM 42.5000 -87.9680 92° East 487 560 37,000  Level FlightAware
05:50PM 42.5000 -87.8570 90° East 487 560 37,000  Level FlightAware
05:51PM 42.5000 -87.7530 90° East 486 559 37,000  Level FlightAware
05:51PM 42.5000 -87.6350 90° East 485 558 37,000  Level FlightAware
05:52PM 42.4990 -87.5400 91° East 484 557 37,000  Level FlightAware
05:53PM 42.4990 -87.4410 90° East 484 557 37,000  Level FlightAware
05:53PM 42.4980 -87.3210 91° East 483 556 37,000  Level FlightAware
05:54PM 42.4980 -87.2220 90° East 482 555 37,000  Level FlightAware
05:54PM 42.4970 -87.1140 91° East 481 554 37,000  Level FlightAware
05:55PM 42.4960 -87.0060 91° East 480 552 37,000  Level FlightAware
05:56PM 42.4950 -86.9060 91° East 480 552 37,000  Level FlightAware
05:56PM 42.4940 -86.8000 91° East 479 551 37,000  Level FlightAware
05:57PM 42.4930 -86.6890 91° East 478 550 37,000  Level FlightAware
05:57PM 42.4920 -86.5940 91° East 477 549 37,000  Level FlightAware
05:58PM 42.4900 -86.4850 91° East 477 549 37,000  Level FlightAware
05:58PM 42.4890 -86.3870 91° East 477 549 37,000  Level FlightAware
05:59PM 42.4880 -86.2840 91° East 476 548 37,000  Level FlightAware
06:00PM 42.4860 -86.1750 91° East 476 548 37,000 480 Level FlightAware
06:00PM 42.4840 -86.0650 91° East 474 545 37,600 960 Climbing FlightAware
06:01PM 42.4830 -85.9610 91° East 473 544 38,200 960 Climbing FlightAware
06:01PM 42.4810 -85.8670 92° East 472 543 38,700 660 Climbing FlightAware
06:02PM 42.4790 -85.7630 91° East 470 541 39,000 240 Climbing FlightAware
06:03PM 42.4770 -85.6610 91° East 465 535 39,000  Level FlightAware
06:03PM 42.4750 -85.5580 91° East 467 537 39,000  Level FlightAware
06:04PM 42.4720 -85.4460 92° East 469 540 39,000  Level FlightAware
06:04PM 42.4700 -85.3440 91° East 468 539 39,000  Level FlightAware
06:05PM 42.4680 -85.2490 92° East 468 539 39,000  Level FlightAware
06:05PM 42.4650 -85.1410 92° East 468 539 39,000  Level FlightAware
06:06PM 42.4630 -85.0510 92° East 467 537 39,000  Level FlightAware
06:07PM 42.4600 -84.9510 92° East 467 537 39,000  Level FlightAware
06:07PM 42.4570 -84.8390 92° East 467 537 39,000  Level FlightAware
06:08PM 42.4540 -84.7270 92° East 466 536 39,000  Level FlightAware
06:08PM 42.4510 -84.6390 93° East 467 537 39,000  Level FlightAware
06:09PM 42.4450 -84.5370 95° East 466 536 39,000  Level FlightAware
06:10PM 42.4380 -84.4230 95° East 466 536 39,000  Level FlightAware
06:10PM 42.4320 -84.3330 95° East 466 536 39,000  Level FlightAware
06:11PM 42.4240 -84.1870 94° East 464 534 39,000  Level FlightAware
06:11PM 42.4180 -84.1000 95° East 462 532 39,000  Level FlightAware
06:12PM 42.4120 -83.9890 94° East 460 529 39,000  Level FlightAware
06:13PM 42.4050 -83.8840 95° East 458 527 39,000  Level FlightAware
06:13PM 42.3990 -83.7840 95° East 457 526 39,000  Level FlightAware
06:14PM 42.3920 -83.6810 95° East 456 525 39,000  Level FlightAware
06:14PM 42.3870 -83.5910 94° East 455 524 39,000  Level FlightAware
06:15PM 42.3800 -83.4890 95° East 455 524 39,000  Level FlightAware
06:16PM 42.3730 -83.3940 96° East 454 522 39,000  Level FlightAware
06:16PM 42.3660 -83.2850 95° East 454 522 39,000  Level FlightAware
06:17PM 42.3600 -83.1940 95° East 454 522 39,000  Level FlightAware
06:17PM 42.3530 -83.0940 95° East 456 525 39,000  Level FlightAware
06:18PM 42.3460 -82.9920 95° East 456 525 39,000  Level FlightAware
06:19PM 42.3390 -82.8970 96° East 456 525 39,000  Level FlightAware
06:19PM 42.3320 -82.8040 96° East 456 525 39,000  Level FlightAware
06:20PM 42.3240 -82.6920 95° East 457 526 39,000  Level FlightAware
06:20PM 42.3170 -82.5950 96° East 458 527 39,000  Level FlightAware
06:21PM 42.3090 -82.4930 96° East 458 527 39,000  Level FlightAware
06:21PM 42.3020 -82.3990 96° East 458 527 39,000  Level FlightAware
06:22PM 42.2950 -82.3070 96° East 459 528 39,000  Level FlightAware
06:23PM 42.2880 -82.2070 95° East 459 528 39,000  Level FlightAware
06:23PM 42.2790 -82.1000 96° East 460 529 39,000  Level FlightAware
06:24PM 42.2720 -82.0030 96° East 460 529 39,000  Level FlightAware
06:24PM 42.2640 -81.9050 96° East 460 529 39,000  Level FlightAware
06:25PM 42.2550 -81.7930 96° East 460 529 39,000  Level FlightAware
06:26PM 42.2470 -81.7000 97° East 460 529 39,000  Level FlightAware
06:26PM 42.2400 -81.6080 96° East 460 529 39,000  Level FlightAware
06:27PM 42.2310 -81.5040 97° East 458 527 39,000  Level FlightAware
06:27PM 42.2220 -81.4030 97° East 457 526 39,000  Level FlightAware
06:28PM 42.2130 -81.2970 97° East 456 525 39,000  Level FlightAware
06:28PM 42.2050 -81.2010 96° East 457 526 39,000  Level FlightAware
06:29PM 42.1970 -81.1080 97° East 457 526 39,000  Level FlightAware
06:30PM 42.1880 -81.0060 97° East 457 526 39,000  Level FlightAware
06:30PM 42.1790 -80.9020 97° East 456 525 39,000  Level FlightAware
06:31PM 42.1700 -80.8070 97° East 456 525 39,000  Level FlightAware
06:31PM 42.1610 -80.7040 97° East 456 525 39,000  Level FlightAware
06:32PM 42.1530 -80.6160 97° East 456 525 39,000  Level FlightAware
06:33PM 42.1430 -80.5110 97° East 456 525 39,000  Level FlightAware
06:33PM 42.1350 -80.4190 97° East 456 525 39,000  Level FlightAware
06:34PM 42.1250 -80.3150 97° East 456 525 39,000  Level FlightAware
06:34PM 42.1160 -80.2170 97° East 457 526 39,000  Level FlightAware
06:35PM 42.1060 -80.1140 97° East 458 527 39,000  Level FlightAware
06:35PM 42.0970 -80.0230 98° East 459 528 39,000  Level FlightAware
06:36PM 42.0880 -79.9260 97° East 460 529 39,000  Level FlightAware
06:37PM 42.0770 -79.8200 98° East 462 532 39,000  Level FlightAware
06:37PM 42.0680 -79.7250 97° East 463 533 39,000  Level FlightAware
06:38PM 42.0570 -79.6230 98° East 468 539 39,000  Level FlightAware
06:38PM 42.0470 -79.5200 97° East 474 545 39,000  Level FlightAware
06:39PM 42.0340 -79.4290 101° East 476 548 39,000  Level FlightAware
06:40PM 42.0180 -79.3260 102° East 477 549 39,000  Level FlightAware
06:40PM 42.0010 -79.2160 102° East 478 550 39,000  Level FlightAware
06:41PM 41.9870 -79.1210 101° East 475 547 39,000  Level FlightAware
06:41PM 41.9700 -79.0070 101° East 473 544 39,000  Level FlightAware
06:42PM 41.9570 -78.9160 101° East 472 543 39,000  Level FlightAware
06:42PM 41.9420 -78.8180 102° East 472 543 39,000  Level FlightAware
06:43PM 41.9260 -78.7080 101° East 471 542 39,000  Level FlightAware
06:44PM 41.9110 -78.6100 102° East 471 542 39,000  Level FlightAware
06:44PM 41.8970 -78.5180 102° East 470 541 39,000  Level FlightAware
06:45PM 41.8810 -78.4150 102° East 470 541 39,000  Level FlightAware
06:45PM 41.8660 -78.3200 102° East 470 541 39,000  Level FlightAware
06:46PM 41.8500 -78.2120 101° East 470 541 39,000  Level FlightAware
06:47PM 41.8310 -78.0920 102° East 470 541 39,000  Level FlightAware
06:47PM 41.8150 -77.9910 102° East 471 542 39,000  Level FlightAware
06:48PM 41.8000 -77.8990 102° East 471 542 39,000  Level FlightAware
06:48PM 41.7830 -77.7920 102° East 472 543 39,000  Level FlightAware
06:49PM 41.7660 -77.6860 102° East 472 543 39,000  Level FlightAware
06:50PM 41.7520 -77.5970 102° East 471 542 39,000  Level FlightAware
06:50PM 41.7350 -77.4950 103° East 470 541 39,000  Level FlightAware
06:51PM 41.7190 -77.3920 102° East 470 541 39,000  Level FlightAware
06:51PM 41.7040 -77.3030 103° East 469 540 39,000  Level FlightAware
06:52PM 41.6870 -77.1990 102° East 468 539 39,000  Level FlightAware
06:52PM 41.6650 -77.1010 107° East 466 536 39,000 -180 Level FlightAware
06:53PM 41.6390 -77.0040 110° East 465 535 38,800 -660 Descending FlightAware
06:54PM 41.6150 -76.9160 110° East 464 534 38,300 -900 Descending FlightAware
06:54PM 41.5910 -76.8270 110° East 466 536 37,800 -1,200 Descending FlightAware
06:55PM 41.5640 -76.7300 110° East 476 548 36,900 -1,380 Descending FlightAware
06:56PM 41.5310 -76.6110 110° East 482 555 36,100 -960 Descending FlightAware
06:56PM 41.5050 -76.5160 110° East 482 555 35,700 -840 Descending FlightAware
06:57PM 41.4780 -76.4170 110° East 482 555 35,200 -660 Descending FlightAware
06:57PM 41.4530 -76.3260 110° East 481 554 35,000 -180 Descending FlightAware
06:58PM 41.4210 -76.2140 111° Southeast 485 558 35,000  Level FlightAware
06:58PM 41.3950 -76.1210 110° East 482 555 35,000 -360 Level FlightAware
06:59PM 41.3670 -76.0190 110° East 477 549 34,600 -1,680 Descending FlightAware
07:00PM 41.3400 -75.9260 111° Southeast 479 551 33,000 -3,000 Descending FlightAware
07:00PM 41.3150 -75.8380 111° Southeast 481 554 31,300 -3,240 Descending FlightAware
07:01PM 41.2870 -75.7400 111° Southeast 483 556 29,400 -2,820 Descending FlightAware
07:01PM 41.2570 -75.6420 112° Southeast 471 542 28,000 -2,460 Descending FlightAware
07:02PM 41.2250 -75.5450 114° Southeast 461 531 26,500 -2,460 Descending FlightAware
07:03PM 41.1950 -75.4550 114° Southeast 453 521 25,100 -2,460 Descending FlightAware
07:03PM 41.1660 -75.3700 114° Southeast 445 512 23,700 -1,860 Descending FlightAware
07:04PM 41.1380 -75.2860 114° Southeast 442 509 23,000 -600 Descending FlightAware
07:04PM 41.1070 -75.1960 115° Southeast 439 505 23,000  Level FlightAware
07:05PM 41.0810 -75.1180 114° Southeast 442 509 23,000  Level FlightAware
07:05PM 41.0500 -75.0260 114° Southeast 451 519 23,000  Level FlightAware
07:06PM 41.0220 -74.9440 114° Southeast 453 521 23,000  Level FlightAware
07:07PM 40.9990 -74.8670 112° Southeast 440 506 23,000  Level FlightAware
07:07PM 40.9830 -74.7600 101° East 401 461 23,000  Level FlightAware
07:08PM 40.9750 -74.6770 97° East 369 425 23,000  Level FlightAware
07:08PM 40.9660 -74.5920 98° East 367 422 23,000  Level FlightAware
07:09PM 40.9590 -74.5270 98° East 361 415 23,000 -480 Level FlightAware
07:09PM 40.9500 -74.4490 99° East 354 407 22,500 -1,260 Descending FlightAware
07:10PM 40.9410 -74.3680 98° East 344 396 21,500 -1,740 Descending FlightAware
07:11PM 40.9330 -74.2950 98° East 335 386 20,400 -1,740 Descending FlightAware
07:12PM 40.9220 -74.2020 99° East 334 384 19,100 -1,260 Descending FlightAware
07:12PM 40.9160 -74.1590 100° East 334 384 19,000 -120 Descending FlightAware
07:12PM 40.8910 -74.0930 117° Southeast 332 382 19,000  Level FlightAware
07:13PM 40.8866 -74.0810 116° Southeast 334 384 19,000 -360 Level FlightAware ADS-B
07:13PM 40.8643 -74.0253 118° Southeast 334 384 18,800 -780 Descending FlightAware ADS-B
07:13PM 40.8581 -74.0095 118° Southeast 335 386 18,500 -1,620 Descending FlightAware ADS-B (KSNC)
07:14PM 40.8403 -73.9635 117° Southeast 335 386 17,900 -1,860 Descending FlightAware ADS-B
07:14PM 40.8196 -73.9072 116° Southeast 323 372 16,800 -2,280 Descending FlightAware ADS-B
07:15PM 40.8036 -73.8639 116° Southeast 314 361 15,800 -2,340 Descending FlightAware ADS-B (KSNC)
07:15PM 40.7690 -73.7790 118° Southeast 300 345 13,800 -2,400 Descending FlightAware
07:16PM 40.7567 -73.7646 138° Southeast 297 342 13,300 -1,920 Descending FlightAware ADS-B (KSNC)
07:16PM 40.7440 -73.7573 157° South 301 346 13,100 -1,500 Descending FlightAware ADS-B (KSNC)
07:16PM 40.7022 -73.7468 169° South 300 345 12,300 -1,980 Descending FlightAware ADS-B (KSNC)
07:17PM 40.6390 -73.7320 170° South 290 334 10,600 -2,040 Descending FlightAware
07:18PM 40.6040 -73.7230 169° South 282 325 9,800 -1,920 Descending FlightAware
07:18PM 40.5780 -73.7160 168° South 281 323 9,100 -2,280 Descending FlightAware
07:18PM 40.5500 -73.7090 169° South 280 322 8,200 -2,460 Descending FlightAware
07:19PM 40.5210 -73.7020 170° South 278 320 7,300 -2,340 Descending FlightAware
07:19PM 40.4960 -73.6970 171° South 272 313 6,600 -2,160 Descending FlightAware
07:19PM 40.4820 -73.6950 174° South 269 310 6,200 -2,400 Descending FlightAware
07:20PM 40.4520 -73.6890 171° South 266 306 5,200 -2,340 Descending FlightAware
07:20PM 40.4310 -73.6850 172° South 268 308 4,600 -1,260 Descending FlightAware
07:20PM 40.3960 -73.6900 186° South 270 311 4,200 -780 Descending FlightAware
07:21PM 40.3690 -73.7100 209° Southwest 260 299 3,900 -720 Descending FlightAware
07:21PM 40.3510 -73.7280 217° Southwest 258 297 3,700 -780 Descending FlightAware
07:21PM 40.3480 -73.7340 237° Southwest 257 296 3,600 -900 Descending FlightAware
07:21PM 40.3440 -73.7470 248° West 254 292 3,500 -720 Descending FlightAware
07:22PM 40.3400 -73.7720 258° West 248 285 3,300 -1,140 Descending FlightAware
07:22PM 40.3330 -73.8110 257° West 251 289 2,700 -1,380 Descending FlightAware
07:23PM 40.3420 -73.8570 284° West 250 288 2,000 -900 Descending FlightAware
07:23PM 40.3520 -73.8900 292° West 252 290 1,900 -180 Descending FlightAware
07:23PM 40.3610 -73.9200 291° West 248 285 1,900  Level FlightAware
07:23PM 40.3640 -73.9300 291° West 243 280 1,900  Level FlightAware
07:23PM 40.3670 -73.9350 308° West 237 273 1,900  Level FlightAware
07:24PM 40.3750 -73.9430 323° Northwest 226 260 1,900  Level FlightAware
07:24PM 40.3810 -73.9470 333° Northwest 217 250 1,900  Level FlightAware
07:24PM 40.3890 -73.9490 349° North 207 238 1,900  Level FlightAware
07:24PM 40.4120 -73.9390 18° North 187 215 1,900  Level FlightAware
07:25PM 40.4270 -73.9270 31° Northeast 187 215 1,900  Level FlightAware
07:25PM 40.4390 -73.9170 32° Northeast 172 198 1,900  Level FlightAware
07:25PM 40.4480 -73.9090 34° Northeast 160 184 1,900  Level FlightAware
07:26PM 40.4610 -73.8980 33° Northeast 148 170 1,900  Level FlightAware
07:26PM 40.4750 -73.8880 29° Northeast 148 170 1,900  Level FlightAware
07:26PM 40.4820 -73.8820 33° Northeast 149 171 1,900  Level FlightAware
07:27PM 40.5050 -73.8650 29° Northeast 149 171 1,900  Level FlightAware
07:27PM 40.5160 -73.8550 35° Northeast 149 171 1,900  Level FlightAware
07:27PM 40.5280 -73.8460 30° Northeast 150 173 1,900 -180 Level FlightAware
07:28PM 40.5430 -73.8350 29° Northeast 151 174 1,800 -600 Descending FlightAware
07:28PM 40.5550 -73.8260 30° Northeast 148 170 1,500 -780 Descending FlightAware
07:29PM 40.5670 -73.8160 32° Northeast 143 165 1,300 -720 Descending FlightAware
07:29PM 40.5750 -73.8100 30° Northeast 127 146 1,100 -720 Descending FlightAware
07:29PM 40.5850 -73.8020 31° Northeast 113 130 900 -600 Descending FlightAware
07:29PM 40.5890 -73.7990 30° Northeast 116 133 800 -720 Descending FlightAware
07:30PM 40.6010 -73.7890 32° Northeast 117 135 500 -660 Descending FlightAware
07:30PM 40.6110 -73.7820 28° Northeast 120 138 300 -600 Descending FlightAware
07:30PM 40.6200 -73.7740 34° Northeast 127 146 100 -600 Descending FlightAware
07:31PM 40.6310 -73.7660 29° Northeast 125 144 -300 Descending FlightAware